<?xml version='1.0' encoding='UTF-8'?>
<gpx xmlns="http://www.topografix.com/GPX/1/1" creator="www.balnam.be" version="1.1" xmlns:xsi="http://www.w3.org/2001/XMLSchema-instance" xsi:schemaLocation="http://www.topografix.com/GPX/1/1 http://www.topografix.com/GPX/1/1/gpx.xsd">
<trk>
<name>bwvbg10</name>
<cmt>v</cmt>
<desc>Bierges Chemin n°10 Chemin de la Sucrerie</desc>
<link href="https://chemins.be/bierges/chemin/10"/><trkseg>
<trkpt lat="50.714540" lon="4.582460"><time>2026-05-08T07:04:35Z</time></trkpt>
<trkpt lat="50.714790" lon="4.583042"><time>2026-05-08T07:14:35Z</time></trkpt>
<trkpt lat="50.714871" lon="4.583184"><time>2026-05-08T07:24:35Z</time></trkpt>
<trkpt lat="50.714907" lon="4.583339"><time>2026-05-08T07:34:35Z</time></trkpt>
<trkpt lat="50.714851" lon="4.584288"><time>2026-05-08T07:44:35Z</time></trkpt>
<trkpt lat="50.714778" lon="4.584840"><time>2026-05-08T07:54:35Z</time></trkpt>
<trkpt lat="50.714769" lon="4.585024"><time>2026-05-08T08:04:35Z</time></trkpt>
<trkpt lat="50.714777" lon="4.585208"><time>2026-05-08T08:14:35Z</time></trkpt>
<trkpt lat="50.714866" lon="4.585746"><time>2026-05-08T08:24:35Z</time></trkpt>
<trkpt lat="50.714936" lon="4.586851"><time>2026-05-08T08:34:35Z</time></trkpt>
<trkpt lat="50.715007" lon="4.587220"><time>2026-05-08T08:44:35Z</time></trkpt>
<trkpt lat="50.715096" lon="4.587914"><time>2026-05-08T08:54:35Z</time></trkpt>
<trkpt lat="50.715270" lon="4.589394"><time>2026-05-08T09:04:35Z</time></trkpt>
<trkpt lat="50.716046" lon="4.590341"><time>2026-05-08T09:14:35Z</time></trkpt>
<trkpt lat="50.716254" lon="4.590556"><time>2026-05-08T09:24:35Z</time></trkpt>
<trkpt lat="50.716193" lon="4.591189"><time>2026-05-08T09:34:35Z</time></trkpt>
<trkpt lat="50.714531" lon="4.595602"><time>2026-05-08T09:44:35Z</time></trkpt>
<trkpt lat="50.714993" lon="4.598399"><time>2026-05-08T09:54:35Z</time></trkpt>
</trkseg></trk>
<trk>
<name>bwvbg10</name>
<cmt>r</cmt>
<desc>Bierges Chemin n°10 Chemin de la Sucrerie</desc>
<link href="https://chemins.be/bierges/chemin/10"/><trkseg>
<trkpt lat="50.714993" lon="4.598399"><time>2026-05-08T09:54:35Z</time></trkpt>
<trkpt lat="50.715059" lon="4.599549"><time>2026-05-08T10:04:35Z</time></trkpt>
<trkpt lat="50.714827" lon="4.601448"><time>2026-05-08T10:14:35Z</time></trkpt>
<trkpt lat="50.714692" lon="4.601936"><time>2026-05-08T10:24:35Z</time></trkpt>
<trkpt lat="50.714303" lon="4.602585"><time>2026-05-08T10:34:35Z</time></trkpt>
</trkseg></trk>
<trk>
<name>bwvbg10</name>
<cmt>s</cmt>
<desc>Bierges Chemin n°10 Chemin de la Sucrerie</desc>
<link href="https://chemins.be/bierges/chemin/10"/><trkseg>
<trkpt lat="50.714303" lon="4.602585"><time>2026-05-08T10:34:35Z</time></trkpt>
<trkpt lat="50.714486" lon="4.603497"><time>2026-05-08T10:44:35Z</time></trkpt>
</trkseg>
</trk>
</gpx>